sensor_id;sensor_type;location;lat;lon;timestamp;pressure;altitude;pressure_sealevel;temperature;humidity
72896;BME280;61036;53.224;6.554;2023-07-30T00:01:54;100707.94;;;20.04;100.00
72896;BME280;61036;53.224;6.554;2023-07-30T00:04:19;100706.28;;;19.95;100.00
72896;BME280;61036;53.224;6.554;2023-07-30T00:06:46;100702.47;;;20.04;100.00
72896;BME280;61036;53.224;6.554;2023-07-30T00:09:11;100703.94;;;20.06;100.00
72896;BME280;61036;53.224;6.554;2023-07-30T00:11:37;100704.22;;;20.20;100.00
72896;BME280;61036;53.224;6.554;2023-07-30T00:14:02;100707.78;;;20.28;100.00
72896;BME280;61036;53.224;6.554;2023-07-30T00:16:28;100704.91;;;20.22;100.00
72896;BME280;61036;53.224;6.554;2023-07-30T00:18:53;100707.72;;;20.05;100.00
72896;BME280;61036;53.224;6.554;2023-07-30T00:21:19;100720.81;;;20.18;100.00
72896;BME280;61036;53.224;6.554;2023-07-30T00:23:44;100716.72;;;20.22;100.00
72896;BME280;61036;53.224;6.554;2023-07-30T00:26:10;100719.63;;;20.21;100.00
72896;BME280;61036;53.224;6.554;2023-07-30T00:28:35;100720.41;;;20.29;100.00
72896;BME280;61036;53.224;6.554;2023-07-30T00:31:01;100713.16;;;20.37;100.00
72896;BME280;61036;53.224;6.554;2023-07-30T00:33:26;100722.47;;;20.27;100.00
72896;BME280;61036;53.224;6.554;2023-07-30T00:35:52;100719.97;;;20.18;100.00
72896;BME280;61036;53.224;6.554;2023-07-30T00:38:18;100717.56;;;20.23;100.00
72896;BME280;61036;53.224;6.554;2023-07-30T00:40:44;100717.88;;;19.97;100.00
72896;BME280;61036;53.224;6.554;2023-07-30T00:43:10;100722.31;;;20.29;100.00
72896;BME280;61036;53.224;6.554;2023-07-30T00:45:36;100711.38;;;19.98;100.00
72896;BME280;61036;53.224;6.554;2023-07-30T00:48:04;100716.03;;;19.89;100.00
72896;BME280;61036;53.224;6.554;2023-07-30T00:50:30;100714.06;;;20.06;100.00
72896;BME280;61036;53.224;6.554;2023-07-30T00:52:57;100720.44;;;19.98;100.00
72896;BME280;61036;53.224;6.554;2023-07-30T00:55:22;100716.34;;;19.94;100.00
72896;BME280;61036;53.224;6.554;2023-07-30T00:57:48;100718.72;;;19.97;100.00
72896;BME280;61036;53.224;6.554;2023-07-30T01:00:14;100729.03;;;20.18;100.00
72896;BME280;61036;53.224;6.554;2023-07-30T01:02:41;100719.19;;;19.70;100.00
72896;BME280;61036;53.224;6.554;2023-07-30T01:05:07;100719.53;;;19.75;100.00
72896;BME280;61036;53.224;6.554;2023-07-30T01:07:32;100732.22;;;19.59;100.00
72896;BME280;61036;53.224;6.554;2023-07-30T01:09:59;100728.69;;;19.90;100.00
72896;BME280;61036;53.224;6.554;2023-07-30T01:12:27;100723.56;;;19.87;100.00
72896;BME280;61036;53.224;6.554;2023-07-30T01:14:55;100737.03;;;19.97;100.00
72896;BME280;61036;53.224;6.554;2023-07-30T01:17:24;100733.22;;;20.06;100.00
72896;BME280;61036;53.224;6.554;2023-07-30T01:19:52;100735.06;;;20.14;100.00
72896;BME280;61036;53.224;6.554;2023-07-30T01:22:21;100738.66;;;19.83;100.00
72896;BME280;61036;53.224;6.554;2023-07-30T01:24:48;100727.75;;;19.67;100.00
72896;BME280;61036;53.224;6.554;2023-07-30T01:27:22;100725.06;;;19.98;100.00
72896;BME280;61036;53.224;6.554;2023-07-30T01:30:25;100733.50;;;20.42;100.00
72896;BME280;61036;53.224;6.554;2023-07-30T01:32:52;100737.13;;;19.80;100.00
72896;BME280;61036;53.224;6.554;2023-07-30T01:35:24;100738.06;;;19.64;100.00
72896;BME280;61036;53.224;6.554;2023-07-30T01:37:51;100726.31;;;19.87;100.00
72896;BME280;61036;53.224;6.554;2023-07-30T01:40:17;100733.56;;;19.63;100.00
72896;BME280;61036;53.224;6.554;2023-07-30T01:42:42;100738.06;;;19.48;100.00
72896;BME280;61036;53.224;6.554;2023-07-30T01:45:08;100735.34;;;19.40;100.00
72896;BME280;61036;53.224;6.554;2023-07-30T01:47:34;100739.38;;;19.60;100.00
72896;BME280;61036;53.224;6.554;2023-07-30T01:50:00;100732.97;;;19.84;100.00
72896;BME280;61036;53.224;6.554;2023-07-30T01:52:26;100730.94;;;19.86;100.00
72896;BME280;61036;53.224;6.554;2023-07-30T01:54:51;100724.97;;;19.83;100.00
72896;BME280;61036;53.224;6.554;2023-07-30T01:57:17;100724.81;;;19.76;100.00
72896;BME280;61036;53.224;6.554;2023-07-30T01:59:43;100728.09;;;19.72;100.00
72896;BME280;61036;53.224;6.554;2023-07-30T02:02:08;100726.53;;;19.77;100.00
72896;BME280;61036;53.224;6.554;2023-07-30T02:04:34;100728.63;;;19.59;100.00
72896;BME280;61036;53.224;6.554;2023-07-30T02:06:59;100730.56;;;19.90;100.00
72896;BME280;61036;53.224;6.554;2023-07-30T02:09:25;100723.59;;;19.79;100.00
72896;BME280;61036;53.224;6.554;2023-07-30T02:11:51;100721.94;;;19.70;100.00
72896;BME280;61036;53.224;6.554;2023-07-30T02:14:18;100727.47;;;19.93;100.00
72896;BME280;61036;53.224;6.554;2023-07-30T02:16:43;100729.53;;;19.91;100.00
72896;BME280;61036;53.224;6.554;2023-07-30T02:19:09;100719.63;;;19.90;100.00
72896;BME280;61036;53.224;6.554;2023-07-30T02:21:35;100722.69;;;19.95;100.00
72896;BME280;61036;53.224;6.554;2023-07-30T02:24:02;100724.00;;;20.07;100.00
72896;BME280;61036;53.224;6.554;2023-07-30T02:26:28;100725.09;;;19.90;100.00
72896;BME280;61036;53.224;6.554;2023-07-30T02:28:53;100727.28;;;19.94;100.00
72896;BME280;61036;53.224;6.554;2023-07-30T02:31:19;100718.94;;;19.87;100.00
72896;BME280;61036;53.224;6.554;2023-07-30T02:33:44;100719.38;;;19.68;100.00
72896;BME280;61036;53.224;6.554;2023-07-30T02:36:10;100719.59;;;19.98;100.00
72896;BME280;61036;53.224;6.554;2023-07-30T02:38:35;100718.00;;;19.72;100.00
72896;BME280;61036;53.224;6.554;2023-07-30T02:41:01;100712.03;;;19.69;100.00
72896;BME280;61036;53.224;6.554;2023-07-30T02:43:26;100715.44;;;19.62;100.00
72896;BME280;61036;53.224;6.554;2023-07-30T02:45:52;100712.28;;;19.90;100.00
72896;BME280;61036;53.224;6.554;2023-07-30T02:48:17;100714.75;;;19.60;100.00
72896;BME280;61036;53.224;6.554;2023-07-30T02:50:43;100721.56;;;19.73;100.00
72896;BME280;61036;53.224;6.554;2023-07-30T02:53:09;100716.66;;;19.60;100.00
72896;BME280;61036;53.224;6.554;2023-07-30T02:55:34;100716.44;;;19.61;100.00
72896;BME280;61036;53.224;6.554;2023-07-30T02:57:59;100722.13;;;19.52;100.00
72896;BME280;61036;53.224;6.554;2023-07-30T03:00:25;100724.22;;;19.50;100.00
72896;BME280;61036;53.224;6.554;2023-07-30T03:02:51;100727.44;;;19.53;100.00
72896;BME280;61036;53.224;6.554;2023-07-30T03:05:16;100725.22;;;19.57;100.00
72896;BME280;61036;53.224;6.554;2023-07-30T03:07:43;100729.00;;;19.48;100.00
72896;BME280;61036;53.224;6.554;2023-07-30T03:10:09;100725.91;;;19.51;100.00
72896;BME280;61036;53.224;6.554;2023-07-30T03:12:35;100727.09;;;19.64;100.00
72896;BME280;61036;53.224;6.554;2023-07-30T03:15:00;100725.50;;;19.78;100.00
72896;BME280;61036;53.224;6.554;2023-07-30T03:17:26;100727.84;;;19.34;100.00
72896;BME280;61036;53.224;6.554;2023-07-30T03:19:51;100724.91;;;19.44;100.00
72896;BME280;61036;53.224;6.554;2023-07-30T03:22:16;100725.72;;;19.52;100.00
72896;BME280;61036;53.224;6.554;2023-07-30T03:24:42;100733.13;;;19.44;100.00
72896;BME280;61036;53.224;6.554;2023-07-30T03:27:08;100728.38;;;19.13;100.00
72896;BME280;61036;53.224;6.554;2023-07-30T03:29:33;100726.50;;;19.22;100.00
72896;BME280;61036;53.224;6.554;2023-07-30T03:31:58;100717.59;;;19.28;100.00
72896;BME280;61036;53.224;6.554;2023-07-30T03:34:25;100728.56;;;19.19;100.00
72896;BME280;61036;53.224;6.554;2023-07-30T03:36:50;100721.38;;;19.10;100.00
72896;BME280;61036;53.224;6.554;2023-07-30T03:39:16;100718.84;;;19.17;100.00
72896;BME280;61036;53.224;6.554;2023-07-30T03:41:42;100728.91;;;19.16;100.00
72896;BME280;61036;53.224;6.554;2023-07-30T03:44:08;100720.88;;;19.15;100.00
72896;BME280;61036;53.224;6.554;2023-07-30T03:46:34;100718.06;;;19.48;100.00
72896;BME280;61036;53.224;6.554;2023-07-30T03:48:59;100723.91;;;19.36;100.00
72896;BME280;61036;53.224;6.554;2023-07-30T03:51:27;100718.47;;;19.20;100.00
72896;BME280;61036;53.224;6.554;2023-07-30T03:53:52;100726.00;;;19.10;100.00
72896;BME280;61036;53.224;6.554;2023-07-30T03:56:18;100719.63;;;19.34;100.00
72896;BME280;61036;53.224;6.554;2023-07-30T03:58:43;100717.78;;;19.18;100.00
72896;BME280;61036;53.224;6.554;2023-07-30T04:01:09;100712.97;;;19.28;100.00
72896;BME280;61036;53.224;6.554;2023-07-30T04:03:34;100719.84;;;19.24;100.00
72896;BME280;61036;53.224;6.554;2023-07-30T04:06:00;100719.25;;;19.45;100.00
72896;BME280;61036;53.224;6.554;2023-07-30T04:08:26;100717.78;;;19.18;100.00
72896;BME280;61036;53.224;6.554;2023-07-30T04:10:51;100706.06;;;19.57;100.00
72896;BME280;61036;53.224;6.554;2023-07-30T04:13:17;100721.50;;;19.33;100.00
72896;BME280;61036;53.224;6.554;2023-07-30T04:15:42;100730.41;;;19.44;100.00
72896;BME280;61036;53.224;6.554;2023-07-30T04:18:08;100726.81;;;19.35;100.00
72896;BME280;61036;53.224;6.554;2023-07-30T04:20:33;100722.56;;;19.16;100.00
72896;BME280;61036;53.224;6.554;2023-07-30T04:22:59;100719.75;;;19.57;100.00
72896;BME280;61036;53.224;6.554;2023-07-30T04:25:25;100722.81;;;19.62;100.00
72896;BME280;61036;53.224;6.554;2023-07-30T04:27:50;100725.66;;;19.21;100.00
72896;BME280;61036;53.224;6.554;2023-07-30T04:30:16;100731.41;;;19.42;100.00
72896;BME280;61036;53.224;6.554;2023-07-30T04:32:42;100725.22;;;19.57;100.00
72896;BME280;61036;53.224;6.554;2023-07-30T04:35:08;100728.59;;;19.75;100.00
72896;BME280;61036;53.224;6.554;2023-07-30T04:37:33;100734.47;;;19.48;100.00
72896;BME280;61036;53.224;6.554;2023-07-30T04:39:59;100736.72;;;19.44;100.00
72896;BME280;61036;53.224;6.554;2023-07-30T04:42:27;100744.41;;;19.40;100.00
72896;BME280;61036;53.224;6.554;2023-07-30T04:44:52;100731.88;;;19.54;100.00
72896;BME280;61036;53.224;6.554;2023-07-30T04:47:18;100727.75;;;19.75;100.00
72896;BME280;61036;53.224;6.554;2023-07-30T04:49:43;100726.28;;;19.31;100.00
72896;BME280;61036;53.224;6.554;2023-07-30T04:52:09;100726.34;;;19.79;100.00
72896;BME280;61036;53.224;6.554;2023-07-30T04:54:35;100736.16;;;19.49;100.00
72896;BME280;61036;53.224;6.554;2023-07-30T04:57:03;100733.56;;;19.63;100.00
72896;BME280;61036;53.224;6.554;2023-07-30T04:59:29;100729.47;;;20.07;100.00
72896;BME280;61036;53.224;6.554;2023-07-30T05:01:55;100729.47;;;20.07;100.00
72896;BME280;61036;53.224;6.554;2023-07-30T05:04:20;100728.44;;;20.08;100.00
72896;BME280;61036;53.224;6.554;2023-07-30T05:06:45;100722.81;;;19.62;100.00
72896;BME280;61036;53.224;6.554;2023-07-30T05:09:11;100723.63;;;20.10;100.00
72896;BME280;61036;53.224;6.554;2023-07-30T05:11:38;100725.41;;;20.26;100.00
72896;BME280;61036;53.224;6.554;2023-07-30T05:14:03;100729.81;;;20.04;100.00
72896;BME280;61036;53.224;6.554;2023-07-30T05:16:29;100731.25;;;19.92;100.00
72896;BME280;61036;53.224;6.554;2023-07-30T05:18:54;100731.06;;;19.93;100.00
72896;BME280;61036;53.224;6.554;2023-07-30T05:21:20;100727.53;;;20.16;100.00
72896;BME280;61036;53.224;6.554;2023-07-30T05:23:46;100732.13;;;19.84;100.00
72896;BME280;61036;53.224;6.554;2023-07-30T05:26:11;100735.50;;;19.94;100.00
72896;BME280;61036;53.224;6.554;2023-07-30T05:28:37;100729.66;;;19.66;100.00
72896;BME280;61036;53.224;6.554;2023-07-30T05:31:02;100741.97;;;19.62;100.00
72896;BME280;61036;53.224;6.554;2023-07-30T05:33:28;100733.56;;;20.03;100.00
72896;BME280;61036;53.224;6.554;2023-07-30T05:35:53;100734.59;;;20.33;100.00
72896;BME280;61036;53.224;6.554;2023-07-30T05:38:19;100733.81;;;20.47;100.00
72896;BME280;61036;53.224;6.554;2023-07-30T05:40:44;100731.56;;;20.51;100.00
72896;BME280;61036;53.224;6.554;2023-07-30T05:43:09;100728.47;;;20.31;100.00
72896;BME280;61036;53.224;6.554;2023-07-30T05:45:35;100727.22;;;20.65;100.00
72896;BME280;61036;53.224;6.554;2023-07-30T05:48:01;100734.59;;;21.02;100.00
72896;BME280;61036;53.224;6.554;2023-07-30T05:50:26;100724.31;;;20.81;100.00
72896;BME280;61036;53.224;6.554;2023-07-30T05:52:52;100724.88;;;21.14;100.00
72896;BME280;61036;53.224;6.554;2023-07-30T05:55:17;100731.47;;;20.67;100.00
72896;BME280;61036;53.224;6.554;2023-07-30T05:57:43;100732.53;;;20.81;100.00
72896;BME280;61036;53.224;6.554;2023-07-30T06:00:09;100733.72;;;20.64;100.00
72896;BME280;61036;53.224;6.554;2023-07-30T06:02:40;100731.25;;;20.92;100.00
72896;BME280;61036;53.224;6.554;2023-07-30T06:05:05;100744.09;;;20.76;100.00
72896;BME280;61036;53.224;6.554;2023-07-30T06:07:31;100740.59;;;20.83;100.00
72896;BME280;61036;53.224;6.554;2023-07-30T06:09:56;100744.72;;;20.78;100.00
72896;BME280;61036;53.224;6.554;2023-07-30T06:12:22;100743.22;;;20.76;100.00
72896;BME280;61036;53.224;6.554;2023-07-30T06:14:47;100740.28;;;21.00;100.00
72896;BME280;61036;53.224;6.554;2023-07-30T06:17:13;100743.03;;;20.23;100.00
72896;BME280;61036;53.224;6.554;2023-07-30T06:19:38;100743.84;;;21.01;100.00
72896;BME280;61036;53.224;6.554;2023-07-30T06:22:04;100739.63;;;20.75;100.00
72896;BME280;61036;53.224;6.554;2023-07-30T06:24:29;100735.03;;;20.45;100.00
72896;BME280;61036;53.224;6.554;2023-07-30T06:26:55;100752.59;;;20.59;100.00
72896;BME280;61036;53.224;6.554;2023-07-30T06:29:20;100737.38;;;20.56;100.00
72896;BME280;61036;53.224;6.554;2023-07-30T06:31:46;100743.28;;;20.68;100.00
72896;BME280;61036;53.224;6.554;2023-07-30T06:34:11;100735.44;;;21.40;100.00
72896;BME280;61036;53.224;6.554;2023-07-30T06:36:37;100743.44;;;20.89;100.00
72896;BME280;61036;53.224;6.554;2023-07-30T06:39:02;100747.00;;;21.13;100.00
72896;BME280;61036;53.224;6.554;2023-07-30T06:41:28;100749.44;;;21.45;100.00
72896;BME280;61036;53.224;6.554;2023-07-30T06:43:54;100749.44;;;21.45;100.00
72896;BME280;61036;53.224;6.554;2023-07-30T06:46:19;100749.03;;;21.34;100.00
72896;BME280;61036;53.224;6.554;2023-07-30T06:48:45;100750.03;;;21.18;100.00
72896;BME280;61036;53.224;6.554;2023-07-30T06:51:10;100754.03;;;20.92;100.00
72896;BME280;61036;53.224;6.554;2023-07-30T06:53:38;100758.25;;;20.57;100.00
72896;BME280;61036;53.224;6.554;2023-07-30T06:56:04;100753.38;;;20.90;100.00
72896;BME280;61036;53.224;6.554;2023-07-30T06:58:29;100759.94;;;21.04;100.00
72896;BME280;61036;53.224;6.554;2023-07-30T07:00:55;100770.84;;;20.89;100.00
72896;BME280;61036;53.224;6.554;2023-07-30T07:03:20;100761.22;;;21.31;100.00
72896;BME280;61036;53.224;6.554;2023-07-30T07:05:53;100764.66;;;21.63;100.00
72896;BME280;61036;53.224;6.554;2023-07-30T07:08:19;100762.88;;;21.55;100.00
72896;BME280;61036;53.224;6.554;2023-07-30T07:10:44;100757.59;;;21.16;100.00
72896;BME280;61036;53.224;6.554;2023-07-30T07:13:10;100755.84;;;21.38;100.00
72896;BME280;61036;53.224;6.554;2023-07-30T07:15:35;100755.50;;;21.03;100.00
72896;BME280;61036;53.224;6.554;2023-07-30T07:18:01;100757.13;;;21.12;100.00
72896;BME280;61036;53.224;6.554;2023-07-30T07:20:26;100757.47;;;20.94;100.00
72896;BME280;61036;53.224;6.554;2023-07-30T07:22:52;100748.72;;;21.29;100.00
72896;BME280;61036;53.224;6.554;2023-07-30T07:25:18;100757.03;;;21.35;100.00
72896;BME280;61036;53.224;6.554;2023-07-30T07:27:44;100759.41;;;21.23;100.00
72896;BME280;61036;53.224;6.554;2023-07-30T07:30:10;100753.13;;;21.82;100.00
72896;BME280;61036;53.224;6.554;2023-07-30T07:32:36;100754.78;;;21.98;100.00
72896;BME280;61036;53.224;6.554;2023-07-30T07:35:04;100758.41;;;21.84;100.00
72896;BME280;61036;53.224;6.554;2023-07-30T07:37:32;100753.63;;;22.58;100.00
72896;BME280;61036;53.224;6.554;2023-07-30T07:39:57;100752.97;;;22.56;100.00
72896;BME280;61036;53.224;6.554;2023-07-30T07:42:24;100763.59;;;22.59;100.00
72896;BME280;61036;53.224;6.554;2023-07-30T07:44:49;100759.13;;;23.01;100.00
72896;BME280;61036;53.224;6.554;2023-07-30T07:47:15;100752.00;;;23.35;100.00
72896;BME280;61036;53.224;6.554;2023-07-30T07:49:41;100756.44;;;23.08;100.00
72896;BME280;61036;53.224;6.554;2023-07-30T07:52:07;100762.47;;;23.25;100.00
72896;BME280;61036;53.224;6.554;2023-07-30T07:54:32;100765.53;;;23.09;100.00
72896;BME280;61036;53.224;6.554;2023-07-30T07:56:58;100754.94;;;23.05;100.00
72896;BME280;61036;53.224;6.554;2023-07-30T07:59:23;100762.50;;;22.82;100.00
72896;BME280;61036;53.224;6.554;2023-07-30T08:01:49;100770.19;;;22.14;100.00
72896;BME280;61036;53.224;6.554;2023-07-30T08:04:15;100775.72;;;22.50;100.00
72896;BME280;61036;53.224;6.554;2023-07-30T08:06:40;100770.47;;;22.34;100.00
72896;BME280;61036;53.224;6.554;2023-07-30T08:09:06;100780.41;;;22.35;100.00
72896;BME280;61036;53.224;6.554;2023-07-30T08:11:31;100778.19;;;22.09;100.00
72896;BME280;61036;53.224;6.554;2023-07-30T08:13:57;100778.88;;;21.52;100.00
72896;BME280;61036;53.224;6.554;2023-07-30T08:16:22;100783.13;;;21.39;100.00
72896;BME280;61036;53.224;6.554;2023-07-30T08:18:48;100773.00;;;21.69;100.00
72896;BME280;61036;53.224;6.554;2023-07-30T08:21:14;100771.66;;;21.95;100.00
72896;BME280;61036;53.224;6.554;2023-07-30T08:23:42;100763.78;;;22.07;100.00
72896;BME280;61036;53.224;6.554;2023-07-30T08:26:08;100764.25;;;20.98;100.00
72896;BME280;61036;53.224;6.554;2023-07-30T08:28:34;100756.34;;;21.71;100.00
72896;BME280;61036;53.224;6.554;2023-07-30T08:31:00;100758.31;;;22.43;100.00
72896;BME280;61036;53.224;6.554;2023-07-30T08:33:27;100751.50;;;21.43;100.00
72896;BME280;61036;53.224;6.554;2023-07-30T08:35:56;100755.16;;;22.10;100.00
72896;BME280;61036;53.224;6.554;2023-07-30T08:38:22;100755.84;;;21.97;100.00
72896;BME280;61036;53.224;6.554;2023-07-30T08:40:48;100758.81;;;21.13;100.00
72896;BME280;61036;53.224;6.554;2023-07-30T08:43:14;100756.03;;;21.81;100.00
72896;BME280;61036;53.224;6.554;2023-07-30T08:45:39;100747.50;;;20.55;100.00
72896;BME280;61036;53.224;6.554;2023-07-30T08:48:05;100740.03;;;21.25;100.00
72896;BME280;61036;53.224;6.554;2023-07-30T08:50:31;100748.91;;;22.01;100.00
72896;BME280;61036;53.224;6.554;2023-07-30T08:52:59;100742.06;;;21.76;100.00
72896;BME280;61036;53.224;6.554;2023-07-30T08:55:25;100747.91;;;21.87;100.00
72896;BME280;61036;53.224;6.554;2023-07-30T08:57:52;100748.00;;;21.79;100.00
72896;BME280;61036;53.224;6.554;2023-07-30T09:00:24;100743.13;;;22.47;100.00
72896;BME280;61036;53.224;6.554;2023-07-30T09:02:55;100754.72;;;22.64;100.00
72896;BME280;61036;53.224;6.554;2023-07-30T09:05:21;100755.38;;;22.45;100.00
72896;BME280;61036;53.224;6.554;2023-07-30T09:07:48;100758.31;;;23.29;100.00
72896;BME280;61036;53.224;6.554;2023-07-30T09:10:14;100748.25;;;23.78;100.00
72896;BME280;61036;53.224;6.554;2023-07-30T09:12:39;100760.81;;;22.81;100.00
72896;BME280;61036;53.224;6.554;2023-07-30T09:15:06;100755.38;;;22.88;100.00
72896;BME280;61036;53.224;6.554;2023-07-30T09:17:33;100763.22;;;22.11;100.00
72896;BME280;61036;53.224;6.554;2023-07-30T09:19:59;100775.75;;;21.84;100.00
72896;BME280;61036;53.224;6.554;2023-07-30T09:22:26;100784.44;;;21.20;100.00
72896;BME280;61036;53.224;6.554;2023-07-30T09:24:53;100787.13;;;21.66;100.00
72896;BME280;61036;53.224;6.554;2023-07-30T09:27:23;100784.53;;;21.95;100.00
72896;BME280;61036;53.224;6.554;2023-07-30T09:29:52;100791.25;;;22.07;100.00
72896;BME280;61036;53.224;6.554;2023-07-30T09:32:18;100779.97;;;22.17;100.00
72896;BME280;61036;53.224;6.554;2023-07-30T09:34:44;100793.56;;;22.40;100.00
72896;BME280;61036;53.224;6.554;2023-07-30T09:37:10;100798.19;;;22.18;100.00
72896;BME280;61036;53.224;6.554;2023-07-30T09:39:37;100795.56;;;22.46;100.00
72896;BME280;61036;53.224;6.554;2023-07-30T09:42:03;100808.88;;;21.83;100.00
72896;BME280;61036;53.224;6.554;2023-07-30T09:44:31;100809.91;;;21.82;100.00
72896;BME280;61036;53.224;6.554;2023-07-30T09:46:57;100816.94;;;21.69;100.00
72896;BME280;61036;53.224;6.554;2023-07-30T09:49:23;100805.38;;;21.89;100.00
72896;BME280;61036;53.224;6.554;2023-07-30T09:51:48;100801.09;;;21.72;100.00
72896;BME280;61036;53.224;6.554;2023-07-30T09:54:15;100800.34;;;21.63;100.00
72896;BME280;61036;53.224;6.554;2023-07-30T09:56:42;100790.72;;;22.48;100.00
72896;BME280;61036;53.224;6.554;2023-07-30T09:59:09;100787.22;;;22.75;100.00
72896;BME280;61036;53.224;6.554;2023-07-30T10:01:45;100786.34;;;22.75;100.00
72896;BME280;61036;53.224;6.554;2023-07-30T10:04:12;100785.00;;;22.49;100.00
72896;BME280;61036;53.224;6.554;2023-07-30T10:06:48;100786.28;;;22.90;100.00
72896;BME280;61036;53.224;6.554;2023-07-30T10:09:20;100794.19;;;22.56;100.00
72896;BME280;61036;53.224;6.554;2023-07-30T10:11:47;100811.31;;;22.07;100.00
72896;BME280;61036;53.224;6.554;2023-07-30T10:14:17;100804.72;;;22.74;100.00
72896;BME280;61036;53.224;6.554;2023-07-30T10:17:00;100811.50;;;23.15;100.00
72896;BME280;61036;53.224;6.554;2023-07-30T10:19:27;100803.06;;;22.95;100.00
72896;BME280;61036;53.224;6.554;2023-07-30T10:21:58;100796.38;;;24.30;100.00
72896;BME280;61036;53.224;6.554;2023-07-30T10:24:25;100812.34;;;23.15;100.00
72896;BME280;61036;53.224;6.554;2023-07-30T10:26:53;100809.13;;;23.33;100.00
72896;BME280;61036;53.224;6.554;2023-07-30T10:29:22;100805.56;;;23.95;100.00
72896;BME280;61036;53.224;6.554;2023-07-30T10:31:50;100801.47;;;24.33;100.00
72896;BME280;61036;53.224;6.554;2023-07-30T10:34:17;100819.09;;;22.04;100.00
72896;BME280;61036;53.224;6.554;2023-07-30T10:36:48;100833.22;;;22.30;100.00
72896;BME280;61036;53.224;6.554;2023-07-30T10:39:15;100836.03;;;22.37;100.00
72896;BME280;61036;53.224;6.554;2023-07-30T10:41:46;100844.50;;;21.15;100.00
72896;BME280;61036;53.224;6.554;2023-07-30T10:44:31;100845.56;;;21.29;100.00
72896;BME280;61036;53.224;6.554;2023-07-30T10:46:58;100834.59;;;21.29;100.00
72896;BME280;61036;53.224;6.554;2023-07-30T10:49:24;100841.44;;;22.30;100.00
72896;BME280;61036;53.224;6.554;2023-07-30T10:51:54;100832.91;;;21.96;100.00
72896;BME280;61036;53.224;6.554;2023-07-30T10:54:20;100839.50;;;21.57;100.00
72896;BME280;61036;53.224;6.554;2023-07-30T10:56:47;100843.41;;;21.24;100.00
72896;BME280;61036;53.224;6.554;2023-07-30T10:59:14;100842.13;;;20.89;100.00
72896;BME280;61036;53.224;6.554;2023-07-30T11:01:44;100834.47;;;22.49;100.00
72896;BME280;61036;53.224;6.554;2023-07-30T11:04:11;100835.69;;;22.83;100.00
72896;BME280;61036;53.224;6.554;2023-07-30T11:06:37;100827.22;;;23.21;100.00
72896;BME280;61036;53.224;6.554;2023-07-30T11:09:03;100818.63;;;23.31;100.00
72896;BME280;61036;53.224;6.554;2023-07-30T11:11:30;100807.88;;;24.40;100.00
72896;BME280;61036;53.224;6.554;2023-07-30T11:13:56;100830.44;;;23.52;100.00
72896;BME280;61036;53.224;6.554;2023-07-30T11:16:22;100823.03;;;23.81;100.00
72896;BME280;61036;53.224;6.554;2023-07-30T11:18:48;100824.34;;;23.29;100.00
72896;BME280;61036;53.224;6.554;2023-07-30T11:21:15;100827.34;;;23.90;100.00
72896;BME280;61036;53.224;6.554;2023-07-30T11:23:42;100826.94;;;24.41;100.00
72896;BME280;61036;53.224;6.554;2023-07-30T11:26:16;100818.75;;;24.55;100.00
72896;BME280;61036;53.224;6.554;2023-07-30T11:28:42;100825.72;;;24.51;100.00
72896;BME280;61036;53.224;6.554;2023-07-30T11:31:16;100821.84;;;25.26;100.00
72896;BME280;61036;53.224;6.554;2023-07-30T11:33:43;100811.13;;;24.63;100.00
72896;BME280;61036;53.224;6.554;2023-07-30T11:36:12;100821.88;;;25.13;100.00
72896;BME280;61036;53.224;6.554;2023-07-30T11:38:39;100826.88;;;24.83;100.00
72896;BME280;61036;53.224;6.554;2023-07-30T11:41:06;100818.81;;;24.75;100.00
72896;BME280;61036;53.224;6.554;2023-07-30T11:43:36;100827.69;;;24.63;100.00
72896;BME280;61036;53.224;6.554;2023-07-30T11:46:20;100831.56;;;24.82;100.00
72896;BME280;61036;53.224;6.554;2023-07-30T11:48:51;100832.47;;;25.16;100.00
72896;BME280;61036;53.224;6.554;2023-07-30T11:51:28;100838.44;;;25.40;100.00
72896;BME280;61036;53.224;6.554;2023-07-30T11:53:58;100844.75;;;24.39;100.00
72896;BME280;61036;53.224;6.554;2023-07-30T11:56:27;100845.22;;;24.01;100.00
72896;BME280;61036;53.224;6.554;2023-07-30T11:58:58;100852.44;;;24.09;100.00
72896;BME280;61036;53.224;6.554;2023-07-30T12:01:29;100852.63;;;24.42;100.00
72896;BME280;61036;53.224;6.554;2023-07-30T12:03:56;100854.81;;;23.77;100.00
72896;BME280;61036;53.224;6.554;2023-07-30T12:06:22;100855.34;;;24.01;100.00
72896;BME280;61036;53.224;6.554;2023-07-30T12:08:50;100859.97;;;23.65;100.00
72896;BME280;61036;53.224;6.554;2023-07-30T12:11:19;100880.22;;;23.58;100.00
72896;BME280;61036;53.224;6.554;2023-07-30T12:13:47;100881.41;;;23.20;100.00
72896;BME280;61036;53.224;6.554;2023-07-30T12:16:15;100886.31;;;22.89;100.00
72896;BME280;61036;53.224;6.554;2023-07-30T12:18:41;100891.53;;;22.98;100.00
72896;BME280;61036;53.224;6.554;2023-07-30T12:21:07;100898.28;;;23.39;100.00
72896;BME280;61036;53.224;6.554;2023-07-30T12:23:35;100897.00;;;23.63;100.00
72896;BME280;61036;53.224;6.554;2023-07-30T12:26:02;100895.22;;;22.91;100.00
72896;BME280;61036;53.224;6.554;2023-07-30T12:28:31;100894.56;;;22.52;100.00
72896;BME280;61036;53.224;6.554;2023-07-30T12:30:56;100901.94;;;23.46;100.00
72896;BME280;61036;53.224;6.554;2023-07-30T12:33:22;100895.81;;;22.86;100.00
72896;BME280;61036;53.224;6.554;2023-07-30T12:35:47;100890.25;;;23.65;100.00
72896;BME280;61036;53.224;6.554;2023-07-30T12:38:15;100881.16;;;23.65;100.00